createdAt,value
2017-03-25T00:00:32.718Z,964.51
2017-03-25T00:01:27.714Z,964.57
2017-03-25T00:02:32.769Z,964.53
2017-03-25T00:03:33.049Z,964.51
2017-03-25T00:04:33.150Z,964.46
2017-03-25T00:05:39.957Z,964.51
2017-03-25T00:06:31.780Z,964.50
2017-03-25T00:07:32.569Z,964.49
2017-03-25T00:08:27.658Z,964.53
2017-03-25T00:09:32.789Z,964.50
2017-03-25T00:10:27.703Z,964.52
2017-03-25T00:11:32.789Z,964.50
2017-03-25T00:12:32.485Z,964.51
2017-03-25T00:13:32.588Z,964.48
2017-03-25T00:14:32.786Z,964.48
2017-03-25T00:15:32.378Z,964.49
2017-03-25T00:16:32.797Z,964.49
2017-03-25T00:17:27.619Z,964.46
2017-03-25T00:18:27.264Z,964.41
2017-03-25T00:19:41.617Z,964.44
2017-03-25T00:20:27.737Z,964.46
2017-03-25T00:21:32.927Z,964.41
2017-03-25T00:22:32.688Z,964.42
2017-03-25T00:23:30.639Z,964.34
2017-03-25T00:24:27.753Z,964.36
2017-03-25T00:25:32.797Z,964.38
2017-03-25T00:26:32.807Z,964.32
2017-03-25T00:27:32.619Z,964.35
2017-03-25T00:28:38.809Z,964.31
2017-03-25T00:29:37.938Z,964.29
2017-03-25T00:30:27.479Z,964.26
2017-03-25T00:31:30.479Z,964.27
2017-03-25T00:32:32.299Z,964.32
2017-03-25T00:33:27.512Z,964.32
2017-03-25T00:34:27.839Z,964.29
2017-03-25T00:35:32.587Z,964.29
2017-03-25T00:36:26.590Z,964.26
2017-03-25T00:37:32.891Z,964.30
2017-03-25T00:38:32.829Z,964.32
2017-03-25T00:39:32.830Z,964.35
2017-03-25T00:40:32.830Z,964.34
2017-03-25T00:41:27.873Z,964.37
2017-03-25T00:42:32.460Z,964.41
2017-03-25T00:43:40.833Z,964.41
2017-03-25T00:44:32.828Z,964.40
2017-03-25T00:45:32.589Z,964.43
2017-03-25T00:46:40.852Z,964.42
2017-03-25T00:47:33.300Z,964.43
2017-03-25T00:48:34.888Z,964.41
2017-03-25T00:49:37.843Z,964.39
2017-03-25T00:50:32.825Z,964.40
2017-03-25T00:51:32.438Z,964.38
2017-03-25T00:52:32.590Z,964.40
2017-03-25T00:53:32.700Z,964.33
2017-03-25T00:54:28.102Z,964.28
2017-03-25T00:55:32.990Z,964.27
2017-03-25T00:56:40.357Z,964.27
2017-03-25T00:57:27.669Z,964.27
2017-03-25T00:58:32.898Z,964.26
2017-03-25T00:59:32.840Z,964.22
2017-03-25T01:00:27.906Z,964.22
2017-03-25T01:01:23.305Z,964.23
2017-03-25T01:02:28.038Z,964.22
2017-03-25T01:03:32.477Z,964.24
2017-03-25T01:04:32.240Z,964.26
2017-03-25T01:05:32.309Z,964.19
2017-03-25T01:06:32.001Z,964.15
2017-03-25T01:07:27.755Z,964.15
2017-03-25T01:08:32.678Z,964.13
2017-03-25T01:09:40.506Z,964.18
2017-03-25T01:10:27.096Z,964.13
2017-03-25T01:11:32.963Z,964.16
2017-03-25T01:12:40.578Z,964.13
2017-03-25T01:13:32.487Z,964.18
2017-03-25T01:14:27.519Z,964.19
2017-03-25T01:15:27.390Z,964.20
2017-03-25T01:16:32.519Z,964.19
2017-03-25T01:17:27.505Z,964.18
2017-03-25T01:18:27.578Z,964.19
2017-03-25T01:19:28.051Z,964.21
2017-03-25T01:20:33.208Z,964.15
2017-03-25T01:21:32.659Z,964.12
2017-03-25T01:22:27.480Z,964.06
2017-03-25T01:23:27.990Z,964.05
2017-03-25T01:24:33.210Z,964.06
2017-03-25T01:25:33.580Z,964.06
2017-03-25T01:26:33.207Z,964.08
2017-03-25T01:27:27.277Z,964.03
2017-03-25T01:28:37.497Z,964.11
2017-03-25T01:29:27.583Z,964.02
2017-03-25T01:30:28.216Z,964.04
2017-03-25T01:31:32.383Z,964.08
2017-03-25T01:32:32.879Z,964.09
2017-03-25T01:33:32.710Z,964.11
2017-03-25T01:34:33.224Z,964.13
2017-03-25T01:35:33.219Z,964.07
2017-03-25T01:36:27.057Z,963.97
2017-03-25T01:37:32.899Z,964.01
2017-03-25T01:38:32.768Z,963.96
2017-03-25T01:39:32.870Z,963.99
2017-03-25T01:40:27.987Z,963.98
2017-03-25T01:41:32.691Z,963.98
2017-03-25T01:42:28.224Z,963.96
2017-03-25T01:43:33.188Z,963.95
2017-03-25T01:44:27.380Z,964.01
2017-03-25T01:45:27.585Z,963.96
2017-03-25T01:46:27.499Z,963.97
2017-03-25T01:47:32.887Z,964.00
2017-03-25T01:48:32.945Z,963.91
2017-03-25T01:49:28.152Z,963.93
2017-03-25T01:50:33.144Z,963.86
2017-03-25T01:51:37.978Z,963.78
2017-03-25T01:52:33.232Z,963.81
2017-03-25T01:53:27.439Z,963.76
2017-03-25T01:54:27.652Z,963.77
2017-03-25T01:55:27.461Z,963.80
2017-03-25T01:56:37.517Z,963.79
2017-03-25T01:57:33.243Z,963.74
2017-03-25T01:58:27.364Z,963.73
2017-03-25T01:59:23.079Z,963.73
2017-03-25T02:00:28.256Z,963.73
2017-03-25T02:01:30.573Z,963.74
2017-03-25T02:02:27.819Z,963.74
2017-03-25T02:03:33.021Z,963.71
2017-03-25T02:04:33.510Z,963.71
2017-03-25T02:05:32.763Z,963.68
2017-03-25T02:06:27.305Z,963.69
2017-03-25T02:07:33.127Z,963.66
2017-03-25T02:08:28.013Z,963.68
2017-03-25T02:09:37.238Z,963.65
2017-03-25T02:10:27.973Z,963.63
2017-03-25T02:11:27.876Z,963.65
2017-03-25T02:12:33.150Z,963.62
2017-03-25T02:13:23.478Z,963.61
2017-03-25T02:14:32.810Z,963.62
2017-03-25T02:15:27.572Z,963.64
2017-03-25T02:16:32.709Z,963.67
2017-03-25T02:17:23.681Z,963.63
2017-03-25T02:18:27.922Z,963.64
2017-03-25T02:19:27.881Z,963.61
2017-03-25T02:20:27.717Z,963.64
2017-03-25T02:21:27.446Z,963.62
2017-03-25T02:22:27.275Z,963.61
2017-03-25T02:23:28.176Z,963.61
2017-03-25T02:24:35.258Z,963.61
2017-03-25T02:25:27.417Z,963.62
2017-03-25T02:26:27.353Z,963.62
2017-03-25T02:27:27.473Z,963.67
2017-03-25T02:28:27.508Z,963.65
2017-03-25T02:29:27.423Z,963.64
2017-03-25T02:30:27.897Z,963.64
2017-03-25T02:31:32.879Z,963.59
2017-03-25T02:32:33.278Z,963.65
2017-03-25T02:33:27.017Z,963.59
2017-03-25T02:34:33.285Z,963.64
2017-03-25T02:35:33.286Z,963.59
2017-03-25T02:36:27.416Z,963.62
2017-03-25T02:37:32.968Z,963.58
2017-03-25T02:38:30.479Z,963.62
2017-03-25T02:39:27.718Z,963.62
2017-03-25T02:40:27.801Z,963.63
2017-03-25T02:42:33.086Z,963.59
2017-03-25T02:43:28.249Z,963.55
2017-03-25T02:44:28.101Z,963.54
2017-03-25T02:45:37.713Z,963.54
2017-03-25T02:46:28.371Z,963.53
2017-03-25T02:47:33.290Z,963.52
2017-03-25T02:48:27.444Z,963.48
2017-03-25T02:49:27.422Z,963.52
2017-03-25T02:50:39.285Z,963.56
2017-03-25T02:51:27.533Z,963.58
2017-03-25T02:52:34.993Z,963.50
2017-03-25T02:53:28.194Z,963.56
2017-03-25T02:54:34.741Z,963.49
2017-03-25T02:55:32.682Z,963.47
2017-03-25T02:56:32.698Z,963.54
2017-03-25T02:57:27.763Z,963.46
2017-03-25T02:58:27.475Z,963.50
2017-03-25T02:59:27.500Z,963.51
2017-03-25T03:00:26.888Z,963.54
2017-03-25T03:01:28.323Z,963.56
2017-03-25T03:02:32.795Z,963.50
2017-03-25T03:03:32.813Z,963.52
2017-03-25T03:04:32.733Z,963.46
2017-03-25T03:05:33.163Z,963.41
2017-03-25T03:06:27.214Z,963.45
2017-03-25T03:07:33.163Z,963.46
2017-03-25T03:08:34.330Z,963.48
2017-03-25T03:09:33.341Z,963.44
2017-03-25T03:10:27.594Z,963.53
2017-03-25T03:11:27.782Z,963.48
2017-03-25T03:12:32.854Z,963.52
2017-03-25T03:13:32.795Z,963.46
2017-03-25T03:14:32.605Z,963.46
2017-03-25T03:15:23.386Z,963.39
2017-03-25T03:16:33.035Z,963.43
2017-03-25T03:17:27.999Z,963.39
2017-03-25T03:18:27.920Z,963.43
2017-03-25T03:19:33.036Z,963.42
2017-03-25T03:20:27.773Z,963.43
2017-03-25T03:21:35.575Z,963.39
2017-03-25T03:22:32.635Z,963.38
2017-03-25T03:23:27.738Z,963.32
2017-03-25T03:24:39.372Z,963.30
2017-03-25T03:25:32.742Z,963.28
2017-03-25T03:26:32.846Z,963.26
2017-03-25T03:27:28.078Z,963.34
2017-03-25T03:28:34.921Z,963.35
2017-03-25T03:29:33.684Z,963.34
2017-03-25T03:30:27.798Z,963.35
2017-03-25T03:31:33.894Z,963.31
2017-03-25T03:32:38.578Z,963.32
2017-03-25T03:33:32.503Z,963.30
2017-03-25T03:34:32.314Z,963.29
2017-03-25T03:35:32.420Z,963.25
2017-03-25T03:36:32.585Z,963.28
2017-03-25T03:37:33.156Z,963.27
2017-03-25T03:38:27.341Z,963.26
2017-03-25T03:39:34.560Z,963.23
2017-03-25T03:40:27.766Z,963.24
2017-03-25T03:41:27.818Z,963.22
2017-03-25T03:42:27.880Z,963.29
2017-03-25T03:43:27.972Z,963.30
2017-03-25T03:44:33.046Z,963.32
2017-03-25T03:45:28.091Z,963.29
2017-03-25T03:46:27.479Z,963.32
2017-03-25T03:47:33.119Z,963.28
2017-03-25T03:48:33.227Z,963.24
2017-03-25T03:49:27.724Z,963.24
2017-03-25T03:50:27.621Z,963.26
2017-03-25T03:51:33.013Z,963.23
2017-03-25T03:52:28.078Z,963.25
2017-03-25T03:53:32.524Z,963.22
2017-03-25T03:54:27.359Z,963.21
2017-03-25T03:55:27.528Z,963.23
2017-03-25T03:56:27.243Z,963.19
2017-03-25T03:57:27.962Z,963.19
2017-03-25T03:58:27.673Z,963.18
2017-03-25T03:59:27.784Z,963.18
2017-03-25T04:00:33.036Z,963.16
2017-03-25T04:01:27.688Z,963.15
2017-03-25T04:02:38.986Z,963.12
2017-03-25T04:03:38.064Z,963.15
2017-03-25T04:04:27.815Z,963.16
2017-03-25T04:05:27.792Z,963.12
2017-03-25T04:06:27.821Z,963.18
2017-03-25T04:07:27.933Z,963.14
2017-03-25T04:08:32.550Z,963.18
2017-03-25T04:09:27.534Z,963.16
2017-03-25T04:10:27.691Z,963.09
2017-03-25T04:11:34.058Z,963.10
2017-03-25T04:12:33.021Z,963.15
2017-03-25T04:13:28.198Z,963.13
2017-03-25T04:14:32.598Z,963.11
2017-03-25T04:15:32.699Z,963.13
2017-03-25T04:16:27.792Z,963.11
2017-03-25T04:17:33.083Z,963.09
2017-03-25T04:18:33.181Z,963.14
2017-03-25T04:19:32.212Z,963.09
2017-03-25T04:20:28.027Z,963.03
2017-03-25T04:21:28.034Z,963.02
2017-03-25T04:22:28.136Z,962.99
2017-03-25T04:23:27.319Z,963.00
2017-03-25T04:24:27.642Z,962.97
2017-03-25T04:25:23.817Z,962.98
2017-03-25T04:26:28.099Z,963.04
2017-03-25T04:27:27.839Z,962.99
2017-03-25T04:28:27.129Z,963.02
2017-03-25T04:29:27.478Z,963.06
2017-03-25T04:30:22.470Z,963.01
2017-03-25T04:31:33.101Z,963.00
2017-03-25T04:32:27.779Z,963.00
2017-03-25T04:33:33.102Z,962.99
2017-03-25T04:34:28.101Z,963.01
2017-03-25T04:35:33.102Z,962.88
2017-03-25T04:36:32.891Z,962.89
2017-03-25T04:37:33.158Z,962.92
2017-03-25T04:38:33.098Z,962.91
2017-03-25T04:39:27.232Z,962.89
2017-03-25T04:40:32.428Z,962.94
2017-03-25T04:41:32.874Z,962.95
2017-03-25T04:42:28.018Z,962.94
2017-03-25T04:43:27.774Z,962.98
2017-03-25T04:44:27.841Z,962.98
2017-03-25T04:45:38.128Z,963.00
2017-03-25T04:46:27.150Z,963.05
2017-03-25T04:47:27.905Z,963.02
2017-03-25T04:48:27.999Z,962.97
2017-03-25T04:49:27.614Z,962.98
2017-03-25T04:50:32.591Z,962.94
2017-03-25T04:51:23.142Z,962.94
2017-03-25T04:52:22.190Z,962.95
2017-03-25T04:53:27.391Z,962.91
2017-03-25T04:54:33.022Z,962.91
2017-03-25T04:55:32.873Z,962.90
2017-03-25T04:56:32.553Z,962.87
2017-03-25T04:57:39.114Z,962.87
2017-03-25T04:58:33.126Z,962.87
2017-03-25T04:59:27.260Z,962.89
2017-03-25T05:00:32.468Z,962.88
2017-03-25T05:01:27.484Z,962.86
2017-03-25T05:02:27.857Z,962.92
2017-03-25T05:03:37.713Z,962.84
2017-03-25T05:04:32.783Z,962.84
2017-03-25T05:05:27.913Z,962.86
2017-03-25T05:06:28.956Z,962.91
2017-03-25T05:07:27.470Z,962.87
2017-03-25T05:08:32.844Z,962.84
2017-03-25T05:09:28.215Z,962.86
2017-03-25T05:10:34.213Z,962.92
2017-03-25T05:11:26.933Z,962.93
2017-03-25T05:12:32.341Z,962.87
2017-03-25T05:13:27.968Z,962.92
2017-03-25T05:14:28.117Z,962.91
2017-03-25T05:15:28.080Z,962.91
2017-03-25T05:16:34.211Z,962.90
2017-03-25T05:17:33.222Z,962.94
2017-03-25T05:18:33.218Z,962.95
2017-03-25T05:19:22.557Z,962.95
2017-03-25T05:20:28.003Z,962.98
2017-03-25T05:21:22.608Z,962.99
2017-03-25T05:22:28.216Z,962.99
2017-03-25T05:23:32.816Z,963.02
2017-03-25T05:24:28.065Z,963.04
2017-03-25T05:26:33.227Z,962.96
2017-03-25T05:27:32.925Z,962.94
2017-03-25T05:28:28.218Z,962.92
2017-03-25T05:29:33.216Z,962.94
2017-03-25T05:30:29.349Z,962.96
2017-03-25T05:31:27.547Z,962.95
2017-03-25T05:32:27.594Z,963.00
2017-03-25T05:33:27.995Z,962.98
2017-03-25T05:34:27.917Z,963.00
2017-03-25T05:35:28.026Z,962.94
2017-03-25T05:36:29.233Z,963.06
2017-03-25T05:37:33.089Z,963.00
2017-03-25T05:38:28.369Z,963.03
2017-03-25T05:39:33.251Z,963.01
2017-03-25T05:40:27.981Z,963.01
2017-03-25T05:41:25.921Z,963.02
2017-03-25T05:42:16.895Z,963.02
2017-03-25T05:43:28.169Z,963.00
2017-03-25T05:44:32.374Z,962.99
2017-03-25T05:45:31.155Z,962.95
2017-03-25T05:46:22.766Z,962.95
2017-03-25T05:47:35.288Z,962.92
2017-03-25T05:48:34.474Z,962.95
2017-03-25T05:49:27.715Z,962.98
2017-03-25T05:50:33.054Z,962.91
2017-03-25T05:51:24.215Z,962.90
2017-03-25T05:52:38.336Z,962.93
2017-03-25T05:53:27.598Z,962.91
2017-03-25T05:54:28.046Z,962.92
2017-03-25T05:55:33.294Z,962.92
2017-03-25T05:56:32.757Z,962.97
2017-03-25T05:57:27.431Z,962.95
2017-03-25T05:58:27.655Z,962.91
2017-03-25T05:59:27.560Z,962.93
2017-03-25T06:00:32.193Z,962.94
2017-03-25T06:01:27.643Z,962.99
2017-03-25T06:02:27.799Z,962.98
2017-03-25T06:03:11.946Z,962.95
2017-03-25T06:04:28.022Z,962.92
2017-03-25T06:05:28.243Z,962.91
2017-03-25T06:06:28.557Z,962.89
2017-03-25T06:07:32.837Z,962.92
2017-03-25T06:08:27.587Z,962.85
2017-03-25T06:09:22.498Z,962.90
2017-03-25T06:10:27.560Z,962.90
2017-03-25T06:11:27.899Z,962.92
2017-03-25T06:12:28.058Z,962.92
2017-03-25T06:13:28.060Z,962.88
2017-03-25T06:14:27.561Z,962.94
2017-03-25T06:15:22.836Z,962.89
2017-03-25T06:16:22.558Z,962.93
2017-03-25T06:17:27.542Z,962.86
2017-03-25T06:18:32.869Z,962.86
2017-03-25T06:19:27.385Z,962.85
2017-03-25T06:20:32.494Z,962.83
2017-03-25T06:21:29.275Z,962.82
2017-03-25T06:22:28.265Z,962.80
2017-03-25T06:23:34.403Z,962.87
2017-03-25T06:24:34.587Z,962.83
2017-03-25T06:25:27.329Z,962.83
2017-03-25T06:26:22.801Z,962.83
2017-03-25T06:27:27.347Z,962.80
2017-03-25T06:28:27.553Z,962.83
2017-03-25T06:29:23.059Z,962.82
2017-03-25T06:30:31.361Z,962.86
2017-03-25T06:31:27.475Z,962.85
2017-03-25T06:32:35.351Z,962.89
2017-03-25T06:33:28.017Z,962.90
2017-03-25T06:34:27.956Z,962.93
2017-03-25T06:35:32.220Z,962.97
2017-03-25T06:36:24.129Z,962.98
2017-03-25T06:37:27.271Z,963.04
2017-03-25T06:38:27.528Z,962.99
2017-03-25T06:39:23.583Z,963.03
2017-03-25T06:40:27.378Z,963.04
2017-03-25T06:41:28.043Z,963.07
2017-03-25T06:42:37.958Z,963.08
2017-03-25T06:43:32.789Z,963.09
2017-03-25T06:44:22.475Z,963.13
2017-03-25T06:45:32.969Z,963.07
2017-03-25T06:46:32.544Z,963.06
2017-03-25T06:47:32.215Z,963.07
2017-03-25T06:48:33.338Z,963.03
2017-03-25T06:49:27.915Z,963.04
2017-03-25T06:50:27.608Z,963.03
2017-03-25T06:51:24.023Z,962.98
2017-03-25T06:52:33.003Z,962.99
2017-03-25T06:53:27.846Z,962.95
2017-03-25T06:54:32.529Z,962.97
2017-03-25T06:55:32.860Z,963.00
2017-03-25T06:56:27.842Z,963.01
2017-03-25T06:57:28.078Z,962.98
2017-03-25T06:58:27.664Z,963.03
2017-03-25T06:59:22.122Z,962.98
2017-03-25T07:00:27.670Z,962.99
2017-03-25T07:01:27.539Z,962.97
2017-03-25T07:02:27.788Z,962.91
2017-03-25T07:03:35.067Z,962.88
2017-03-25T07:04:28.301Z,962.91
2017-03-25T07:05:28.411Z,962.87
2017-03-25T07:06:29.410Z,962.83
2017-03-25T07:07:27.512Z,962.85
2017-03-25T07:08:28.024Z,962.84
2017-03-25T07:09:32.926Z,962.90
2017-03-25T07:10:32.627Z,962.85
2017-03-25T07:11:32.766Z,962.89
2017-03-25T07:12:33.287Z,962.87
2017-03-25T07:13:34.623Z,962.92
2017-03-25T07:14:22.142Z,962.88
2017-03-25T07:15:32.574Z,962.86
2017-03-25T07:16:27.410Z,962.79
2017-03-25T07:17:28.086Z,962.76
2017-03-25T07:18:28.014Z,962.80
2017-03-25T07:19:37.834Z,962.79
2017-03-25T07:20:27.363Z,962.77
2017-03-25T07:21:24.734Z,962.77
2017-03-25T07:22:33.250Z,962.81
2017-03-25T07:23:27.652Z,962.78
2017-03-25T07:24:27.534Z,962.80
2017-03-25T07:25:29.624Z,962.82
2017-03-25T07:26:27.745Z,962.85
2017-03-25T07:27:27.637Z,962.81
2017-03-25T07:28:27.224Z,962.84
2017-03-25T07:29:28.600Z,962.86
2017-03-25T07:30:27.878Z,962.94
2017-03-25T07:31:28.756Z,962.88
2017-03-25T07:32:32.290Z,962.97
2017-03-25T07:33:34.032Z,962.96
2017-03-25T07:34:28.122Z,963.01
2017-03-25T07:35:27.357Z,962.99
2017-03-25T07:36:24.360Z,962.95
2017-03-25T07:37:27.719Z,962.95
2017-03-25T07:38:32.533Z,962.97
2017-03-25T07:39:27.956Z,962.99
2017-03-25T07:40:27.784Z,962.95
2017-03-25T07:41:27.954Z,962.99
2017-03-25T07:42:27.869Z,962.99
2017-03-25T07:43:27.824Z,962.92
2017-03-25T07:44:28.044Z,962.96
2017-03-25T07:45:27.375Z,963.04
2017-03-25T07:46:28.177Z,962.98
2017-03-25T07:47:32.913Z,962.96
2017-03-25T07:48:27.655Z,963.02
2017-03-25T07:49:27.888Z,963.02
2017-03-25T07:50:28.115Z,962.95
2017-03-25T07:51:29.888Z,962.98
2017-03-25T07:52:28.222Z,962.99
2017-03-25T07:53:28.254Z,962.97
2017-03-25T07:54:27.797Z,963.03
2017-03-25T07:55:27.646Z,963.00
2017-03-25T07:56:33.553Z,963.00
2017-03-25T07:57:27.838Z,963.00
2017-03-25T07:58:32.657Z,962.99
2017-03-25T07:59:27.472Z,963.00
2017-03-25T08:00:28.093Z,962.96
2017-03-25T08:01:27.563Z,962.99
2017-03-25T08:02:28.169Z,963.00
2017-03-25T08:03:33.399Z,962.95
2017-03-25T08:04:27.724Z,963.00
2017-03-25T08:05:27.794Z,962.97
2017-03-25T08:06:24.529Z,962.99
2017-03-25T08:07:33.160Z,963.00
2017-03-25T08:08:27.901Z,962.99
2017-03-25T08:09:27.514Z,962.98
2017-03-25T08:10:29.509Z,962.97
2017-03-25T08:11:22.821Z,962.99
2017-03-25T08:12:28.011Z,962.95
2017-03-25T08:13:23.088Z,962.94
2017-03-25T08:14:28.415Z,962.93
2017-03-25T08:15:27.966Z,962.90
2017-03-25T08:16:27.773Z,962.92
2017-03-25T08:17:28.006Z,962.91
2017-03-25T08:18:27.945Z,962.89
2017-03-25T08:19:33.780Z,962.87
2017-03-25T08:20:33.071Z,962.94
2017-03-25T08:21:29.801Z,962.96
2017-03-25T08:22:27.970Z,962.93
2017-03-25T08:23:35.049Z,962.93
2017-03-25T08:24:28.083Z,962.98
2017-03-25T08:25:33.739Z,962.93
2017-03-25T08:26:28.213Z,962.89
2017-03-25T08:27:27.446Z,962.80
2017-03-25T08:28:29.152Z,962.85
2017-03-25T08:29:28.522Z,962.86
2017-03-25T08:30:27.858Z,962.85
2017-03-25T08:31:32.884Z,962.85
2017-03-25T08:32:22.920Z,962.83
2017-03-25T08:33:34.075Z,962.81
2017-03-25T08:34:28.072Z,962.83
2017-03-25T08:35:33.078Z,962.84
2017-03-25T08:36:20.116Z,962.86
2017-03-25T08:37:27.930Z,962.90
2017-03-25T08:38:28.055Z,962.90
2017-03-25T08:39:33.117Z,962.94
2017-03-25T08:40:30.547Z,962.93
2017-03-25T08:41:27.938Z,962.90
2017-03-25T08:42:23.628Z,962.87
2017-03-25T08:43:27.741Z,962.93
2017-03-25T08:44:17.458Z,962.87
2017-03-25T08:45:27.561Z,962.88
2017-03-25T08:46:27.664Z,962.86
2017-03-25T08:47:27.961Z,962.80
2017-03-25T08:48:32.679Z,962.85
2017-03-25T08:49:27.731Z,962.78
2017-03-25T08:50:29.385Z,962.77
2017-03-25T08:51:25.416Z,962.75
2017-03-25T08:52:28.430Z,962.71
2017-03-25T08:53:27.578Z,962.73
2017-03-25T08:54:34.888Z,962.70
2017-03-25T08:55:28.259Z,962.70
2017-03-25T08:56:32.789Z,962.75
2017-03-25T08:57:29.023Z,962.74
2017-03-25T08:58:33.384Z,962.76
2017-03-25T08:59:28.157Z,962.73
2017-03-25T09:00:38.718Z,962.75
2017-03-25T09:01:27.935Z,962.77
2017-03-25T09:02:27.696Z,962.75
2017-03-25T09:03:27.867Z,962.78
2017-03-25T09:04:28.141Z,962.72
2017-03-25T09:05:27.697Z,962.73
2017-03-25T09:06:25.763Z,962.68
2017-03-25T09:07:27.622Z,962.67
2017-03-25T09:08:27.553Z,962.69
2017-03-25T09:09:27.735Z,962.62
2017-03-25T09:10:27.716Z,962.63
2017-03-25T09:11:22.163Z,962.59
2017-03-25T09:12:28.042Z,962.66
2017-03-25T09:13:38.166Z,962.62
2017-03-25T09:14:37.163Z,962.64
2017-03-25T09:15:27.163Z,962.58
2017-03-25T09:16:27.674Z,962.66
2017-03-25T09:17:28.169Z,962.60
2017-03-25T09:18:27.183Z,962.61
2017-03-25T09:19:27.276Z,962.62
2017-03-25T09:20:27.552Z,962.58
2017-03-25T09:21:30.666Z,962.61
2017-03-25T09:22:28.178Z,962.62
2017-03-25T09:23:35.555Z,962.56
2017-03-25T09:24:22.834Z,962.61
2017-03-25T09:25:28.059Z,962.62
2017-03-25T09:26:32.207Z,962.62
2017-03-25T09:27:27.916Z,962.60
2017-03-25T09:29:31.145Z,962.59
2017-03-25T09:30:28.192Z,962.64
2017-03-25T09:31:35.531Z,962.60
2017-03-25T09:32:39.526Z,962.57
2017-03-25T09:33:27.915Z,962.58
2017-03-25T09:34:27.958Z,962.62
2017-03-25T09:35:27.693Z,962.64
2017-03-25T09:36:32.189Z,962.60
2017-03-25T09:37:27.706Z,962.64
2017-03-25T09:38:23.014Z,962.67
2017-03-25T09:39:27.710Z,962.65
2017-03-25T09:40:27.838Z,962.68
2017-03-25T09:41:27.860Z,962.66
2017-03-25T09:42:27.988Z,962.64
2017-03-25T09:46:24.369Z,962.67
2017-03-25T09:47:22.466Z,962.71
2017-03-25T09:48:28.381Z,962.72
2017-03-25T09:49:27.841Z,962.76
2017-03-25T09:50:34.812Z,962.73
2017-03-25T09:51:30.563Z,962.68
2017-03-25T09:52:27.616Z,962.69
2017-03-25T09:53:37.469Z,962.71
2017-03-25T09:54:27.728Z,962.67
2017-03-25T09:55:28.143Z,962.67
2017-03-25T09:56:27.660Z,962.71
2017-03-25T09:57:28.242Z,962.70
2017-03-25T09:58:28.143Z,962.71
2017-03-25T09:59:27.309Z,962.66
2017-03-25T10:00:27.249Z,962.66
2017-03-25T10:01:35.197Z,962.62
2017-03-25T10:02:33.226Z,962.61
2017-03-25T10:03:27.339Z,962.61
2017-03-25T10:04:27.603Z,962.57
2017-03-25T10:05:27.777Z,962.55
2017-03-25T10:06:25.562Z,962.56
2017-03-25T10:07:38.776Z,962.53
2017-03-25T10:08:28.570Z,962.51
2017-03-25T10:09:32.306Z,962.43
2017-03-25T10:10:27.458Z,962.41
2017-03-25T10:11:39.567Z,962.32
2017-03-25T10:12:27.649Z,962.33
2017-03-25T10:13:27.683Z,962.30
2017-03-25T10:14:27.373Z,962.27
2017-03-25T10:15:27.497Z,962.35
2017-03-25T10:16:27.628Z,962.27
2017-03-25T10:17:27.498Z,962.33
2017-03-25T10:18:28.087Z,962.30
2017-03-25T10:19:21.837Z,962.21
2017-03-25T10:20:27.641Z,962.27
2017-03-25T10:21:25.617Z,962.31
2017-03-25T10:22:28.138Z,962.25
2017-03-25T10:23:43.185Z,962.20
2017-03-25T10:24:28.328Z,962.15
2017-03-25T10:25:33.008Z,962.18
2017-03-25T10:26:28.205Z,962.10
2017-03-25T10:27:34.571Z,962.17
2017-03-25T10:28:34.843Z,962.18
2017-03-25T10:29:28.089Z,962.17
2017-03-25T10:30:27.406Z,962.12
2017-03-25T10:31:28.367Z,962.19
2017-03-25T10:32:39.758Z,962.16
2017-03-25T10:33:28.313Z,962.14
2017-03-25T10:34:27.472Z,962.15
2017-03-25T10:35:28.344Z,962.13
2017-03-25T10:36:25.559Z,962.11
2017-03-25T10:37:27.781Z,962.10
2017-03-25T10:38:27.391Z,962.10
2017-03-25T10:39:28.030Z,962.08
2017-03-25T10:40:33.030Z,962.01
2017-03-25T10:41:33.141Z,962.05
2017-03-25T10:42:33.549Z,962.08
2017-03-25T10:43:27.774Z,962.09
2017-03-25T10:44:27.504Z,962.03
2017-03-25T10:45:27.837Z,962.08
2017-03-25T10:46:28.279Z,962.08
2017-03-25T10:47:28.447Z,962.04
2017-03-25T10:48:33.455Z,962.05
2017-03-25T10:49:28.516Z,962.08
2017-03-25T10:50:34.261Z,962.05
2017-03-25T10:51:25.890Z,962.05
2017-03-25T10:52:29.890Z,962.02
2017-03-25T10:53:28.373Z,961.99
2017-03-25T10:54:28.009Z,962.00
2017-03-25T10:55:27.557Z,962.01
2017-03-25T10:56:35.293Z,962.02
2017-03-25T10:57:27.604Z,961.98
2017-03-25T10:58:34.571Z,961.97
2017-03-25T10:59:28.184Z,961.94
2017-03-25T11:00:33.239Z,962.00
2017-03-25T11:01:27.974Z,961.96
2017-03-25T11:02:30.341Z,961.96
2017-03-25T11:03:27.748Z,961.98
2017-03-25T11:04:27.850Z,961.94
2017-03-25T11:05:32.644Z,961.93
2017-03-25T11:06:36.491Z,961.98
2017-03-25T11:07:33.346Z,961.89
2017-03-25T11:08:27.599Z,961.89
2017-03-25T11:09:27.872Z,961.95
2017-03-25T11:10:27.377Z,961.87
2017-03-25T11:11:32.652Z,961.83
2017-03-25T11:12:27.461Z,961.85
2017-03-25T11:13:27.688Z,961.84
2017-03-25T11:14:33.227Z,961.78
2017-03-25T11:15:27.626Z,961.78
2017-03-25T11:16:27.925Z,961.76
2017-03-25T11:17:28.381Z,961.73
2017-03-25T11:18:27.458Z,961.72
2017-03-25T11:19:32.622Z,961.66
2017-03-25T11:20:28.371Z,961.66
2017-03-25T11:21:26.145Z,961.61
2017-03-25T11:22:34.051Z,961.67
2017-03-25T11:23:33.566Z,961.66
2017-03-25T11:24:28.467Z,961.69
2017-03-25T11:25:28.233Z,961.61
2017-03-25T11:26:35.576Z,961.60
2017-03-25T11:27:32.442Z,961.57
2017-03-25T11:28:28.243Z,961.59
2017-03-25T11:29:28.071Z,961.57
2017-03-25T11:30:26.158Z,961.52
2017-03-25T11:31:27.614Z,961.53
2017-03-25T11:32:28.316Z,961.54
2017-03-25T11:33:40.540Z,961.57
2017-03-25T11:34:33.585Z,961.44
2017-03-25T11:35:27.633Z,961.45
2017-03-25T11:36:31.548Z,961.42
2017-03-25T11:37:42.544Z,961.40
2017-03-25T11:38:32.737Z,961.40
2017-03-25T11:39:27.486Z,961.43
2017-03-25T11:40:38.395Z,961.42
2017-03-25T11:41:27.520Z,961.42
2017-03-25T11:43:30.758Z,961.35
2017-03-25T11:44:29.007Z,961.37
2017-03-25T11:45:41.299Z,961.36
2017-03-25T11:46:27.547Z,961.31
2017-03-25T11:47:35.422Z,961.29
2017-03-25T11:48:29.687Z,961.23
2017-03-25T11:49:27.934Z,961.26
2017-03-25T11:50:33.256Z,961.19
2017-03-25T11:51:22.263Z,961.21
2017-03-25T11:52:28.559Z,961.15
2017-03-25T11:53:28.559Z,961.15
2017-03-25T11:54:35.389Z,961.08
2017-03-25T11:55:22.549Z,961.08
2017-03-25T11:56:22.953Z,961.06
2017-03-25T12:00:00.524Z,961.02
2017-03-25T12:01:29.140Z,961.00
2017-03-25T12:02:27.777Z,960.96
2017-03-25T12:03:17.854Z,960.96
2017-03-25T12:04:18.862Z,960.89
2017-03-25T12:05:23.510Z,960.96
2017-03-25T12:06:16.100Z,960.89
2017-03-25T12:07:17.304Z,960.93
2017-03-25T12:08:23.063Z,960.91
2017-03-25T12:09:33.143Z,960.97
2017-03-25T12:12:40.304Z,960.84
2017-03-25T12:13:23.729Z,960.78
2017-03-25T12:14:38.781Z,960.80
2017-03-25T12:21:37.614Z,960.68
2017-03-25T12:23:36.524Z,960.66
2017-03-25T12:26:28.120Z,960.70
2017-03-25T12:32:34.244Z,960.61
2017-03-25T12:33:27.580Z,960.61
2017-03-25T12:34:34.741Z,960.64
2017-03-25T12:36:41.343Z,960.59
2017-03-25T12:38:43.114Z,960.55
2017-03-25T12:39:34.204Z,960.53
2017-03-25T12:41:17.491Z,960.47
2017-03-25T12:43:29.043Z,960.51
2017-03-25T12:44:39.910Z,960.40
2017-03-25T12:45:19.096Z,960.45
2017-03-25T12:48:21.825Z,960.35
2017-03-25T12:49:28.906Z,960.41
2017-03-25T12:50:28.628Z,960.37
2017-03-25T12:52:26.440Z,960.33
2017-03-25T12:56:39.048Z,960.25
2017-03-25T12:57:33.851Z,960.24
2017-03-25T12:59:28.994Z,960.23
2017-03-25T13:01:19.579Z,960.22
2017-03-25T13:02:38.294Z,960.15
2017-03-25T13:04:39.014Z,960.13
2017-03-25T13:05:39.021Z,960.08
2017-03-25T13:06:34.255Z,960.06
2017-03-25T13:08:34.682Z,960.08